sensor_id;sensor_type;location;lat;lon;timestamp;P1;durP1;ratioP1;P2;durP2;ratioP2
20653;SDS011;21083;50.898;4.902;2023-03-24T00:00:09;7.65;;;1.88;;
20653;SDS011;21083;50.898;4.902;2023-03-24T00:02:38;5.03;;;2.15;;
20653;SDS011;21083;50.898;4.902;2023-03-24T00:05:08;6.07;;;1.95;;
20653;SDS011;21083;50.898;4.902;2023-03-24T00:07:36;5.65;;;1.80;;
20653;SDS011;21083;50.898;4.902;2023-03-24T00:10:04;6.30;;;2.00;;
20653;SDS011;21083;50.898;4.902;2023-03-24T00:12:33;5.60;;;1.50;;
20653;SDS011;21083;50.898;4.902;2023-03-24T00:15:03;8.32;;;2.03;;
20653;SDS011;21083;50.898;4.902;2023-03-24T00:17:31;7.15;;;1.67;;
20653;SDS011;21083;50.898;4.902;2023-03-24T00:20:00;7.10;;;2.10;;
20653;SDS011;21083;50.898;4.902;2023-03-24T00:22:33;5.88;;;2.20;;
20653;SDS011;21083;50.898;4.902;2023-03-24T00:25:00;7.55;;;2.13;;
20653;SDS011;21083;50.898;4.902;2023-03-24T00:27:28;6.88;;;2.00;;
20653;SDS011;21083;50.898;4.902;2023-03-24T00:30:01;7.15;;;2.08;;
20653;SDS011;21083;50.898;4.902;2023-03-24T00:32:31;5.25;;;1.90;;
20653;SDS011;21083;50.898;4.902;2023-03-24T00:34:58;4.28;;;1.48;;
20653;SDS011;21083;50.898;4.902;2023-03-24T00:37:25;8.48;;;2.13;;
20653;SDS011;21083;50.898;4.902;2023-03-24T00:39:54;8.57;;;2.03;;
20653;SDS011;21083;50.898;4.902;2023-03-24T00:42:21;7.43;;;2.00;;
20653;SDS011;21083;50.898;4.902;2023-03-24T00:44:48;6.82;;;2.00;;
20653;SDS011;21083;50.898;4.902;2023-03-24T00:47:18;6.63;;;2.10;;
20653;SDS011;21083;50.898;4.902;2023-03-24T00:49:50;6.18;;;2.50;;
20653;SDS011;21083;50.898;4.902;2023-03-24T00:52:22;6.80;;;1.98;;
20653;SDS011;21083;50.898;4.902;2023-03-24T00:54:51;6.88;;;2.05;;
20653;SDS011;21083;50.898;4.902;2023-03-24T00:57:23;7.32;;;2.00;;
20653;SDS011;21083;50.898;4.902;2023-03-24T00:59:52;7.43;;;2.05;;
20653;SDS011;21083;50.898;4.902;2023-03-24T01:02:20;5.15;;;2.20;;
20653;SDS011;21083;50.898;4.902;2023-03-24T01:04:50;6.95;;;2.53;;
20653;SDS011;21083;50.898;4.902;2023-03-24T01:07:18;5.05;;;1.83;;
20653;SDS011;21083;50.898;4.902;2023-03-24T01:09:46;5.32;;;1.98;;
20653;SDS011;21083;50.898;4.902;2023-03-24T01:12:21;6.10;;;2.50;;
20653;SDS011;21083;50.898;4.902;2023-03-24T01:14:50;6.68;;;1.98;;
20653;SDS011;21083;50.898;4.902;2023-03-24T01:17:18;7.88;;;2.35;;
20653;SDS011;21083;50.898;4.902;2023-03-24T01:19:46;6.28;;;2.40;;
20653;SDS011;21083;50.898;4.902;2023-03-24T01:22:13;5.28;;;2.10;;
20653;SDS011;21083;50.898;4.902;2023-03-24T01:24:40;6.35;;;2.38;;
20653;SDS011;21083;50.898;4.902;2023-03-24T01:27:08;6.35;;;2.22;;
20653;SDS011;21083;50.898;4.902;2023-03-24T01:29:37;5.82;;;2.05;;
20653;SDS011;21083;50.898;4.902;2023-03-24T01:32:04;8.90;;;2.67;;
20653;SDS011;21083;50.898;4.902;2023-03-24T01:34:32;7.70;;;2.90;;
20653;SDS011;21083;50.898;4.902;2023-03-24T01:36:59;8.18;;;2.85;;
20653;SDS011;21083;50.898;4.902;2023-03-24T01:39:26;8.55;;;2.58;;
20653;SDS011;21083;50.898;4.902;2023-03-24T01:41:53;7.00;;;2.40;;
20653;SDS011;21083;50.898;4.902;2023-03-24T01:44:25;6.85;;;2.40;;
20653;SDS011;21083;50.898;4.902;2023-03-24T01:46:55;6.45;;;2.45;;
20653;SDS011;21083;50.898;4.902;2023-03-24T01:49:24;6.22;;;2.55;;
20653;SDS011;21083;50.898;4.902;2023-03-24T01:51:55;6.00;;;2.20;;
20653;SDS011;21083;50.898;4.902;2023-03-24T01:54:26;6.78;;;2.17;;
20653;SDS011;21083;50.898;4.902;2023-03-24T01:56:57;7.40;;;2.35;;
20653;SDS011;21083;50.898;4.902;2023-03-24T01:59:29;8.60;;;2.45;;
20653;SDS011;21083;50.898;4.902;2023-03-24T02:02:00;6.18;;;2.38;;
20653;SDS011;21083;50.898;4.902;2023-03-24T02:04:28;7.38;;;2.03;;
20653;SDS011;21083;50.898;4.902;2023-03-24T02:06:59;9.52;;;2.65;;
20653;SDS011;21083;50.898;4.902;2023-03-24T02:09:29;7.93;;;2.45;;
20653;SDS011;21083;50.898;4.902;2023-03-24T02:11:56;4.85;;;2.15;;
20653;SDS011;21083;50.898;4.902;2023-03-24T02:14:24;8.35;;;2.58;;
20653;SDS011;21083;50.898;4.902;2023-03-24T02:16:55;8.23;;;2.60;;
20653;SDS011;21083;50.898;4.902;2023-03-24T02:19:47;7.43;;;2.35;;
20653;SDS011;21083;50.898;4.902;2023-03-24T02:22:49;8.52;;;2.45;;
20653;SDS011;21083;50.898;4.902;2023-03-24T02:25:50;9.45;;;2.20;;
20653;SDS011;21083;50.898;4.902;2023-03-24T02:28:38;4.90;;;2.05;;
20653;SDS011;21083;50.898;4.902;2023-03-24T02:31:16;7.20;;;2.35;;
20653;SDS011;21083;50.898;4.902;2023-03-24T02:40:21;7.60;;;1.98;;
20653;SDS011;21083;50.898;4.902;2023-03-24T02:42:59;5.63;;;1.98;;
20653;SDS011;21083;50.898;4.902;2023-03-24T02:45:33;4.45;;;1.88;;
20653;SDS011;21083;50.898;4.902;2023-03-24T02:48:13;8.05;;;3.22;;
20653;SDS011;21083;50.898;4.902;2023-03-24T02:50:48;6.22;;;2.10;;
20653;SDS011;21083;50.898;4.902;2023-03-24T02:53:20;6.05;;;1.75;;
20653;SDS011;21083;50.898;4.902;2023-03-24T02:55:54;7.63;;;2.20;;
20653;SDS011;21083;50.898;4.902;2023-03-24T02:58:26;7.72;;;2.00;;
20653;SDS011;21083;50.898;4.902;2023-03-24T03:00:59;7.30;;;2.25;;
20653;SDS011;21083;50.898;4.902;2023-03-24T03:03:31;4.78;;;1.40;;
20653;SDS011;21083;50.898;4.902;2023-03-24T03:06:05;4.07;;;1.23;;
20653;SDS011;21083;50.898;4.902;2023-03-24T03:08:37;3.45;;;1.15;;
20653;SDS011;21083;50.898;4.902;2023-03-24T03:11:08;2.53;;;1.05;;
20653;SDS011;21083;50.898;4.902;2023-03-24T03:13:42;3.58;;;0.88;;
20653;SDS011;21083;50.898;4.902;2023-03-24T03:16:12;3.85;;;1.13;;
20653;SDS011;21083;50.898;4.902;2023-03-24T03:18:44;6.20;;;1.08;;
20653;SDS011;21083;50.898;4.902;2023-03-24T03:21:16;4.72;;;1.00;;
20653;SDS011;21083;50.898;4.902;2023-03-24T03:23:46;4.03;;;0.73;;
20653;SDS011;21083;50.898;4.902;2023-03-24T03:26:18;6.55;;;1.15;;
20653;SDS011;21083;50.898;4.902;2023-03-24T03:28:49;3.88;;;0.85;;
20653;SDS011;21083;50.898;4.902;2023-03-24T03:31:25;6.57;;;0.73;;
20653;SDS011;21083;50.898;4.902;2023-03-24T03:33:58;7.05;;;1.77;;
20653;SDS011;21083;50.898;4.902;2023-03-24T03:36:31;4.80;;;0.90;;
20653;SDS011;21083;50.898;4.902;2023-03-24T03:39:05;3.53;;;0.70;;
20653;SDS011;21083;50.898;4.902;2023-03-24T03:41:39;8.23;;;1.30;;
20653;SDS011;21083;50.898;4.902;2023-03-24T03:44:07;4.53;;;0.80;;
20653;SDS011;21083;50.898;4.902;2023-03-24T03:46:34;8.13;;;1.10;;
20653;SDS011;21083;50.898;4.902;2023-03-24T03:49:02;7.35;;;1.15;;
20653;SDS011;21083;50.898;4.902;2023-03-24T03:51:29;5.60;;;0.95;;
20653;SDS011;21083;50.898;4.902;2023-03-24T03:53:59;4.47;;;0.88;;
20653;SDS011;21083;50.898;4.902;2023-03-24T03:56:29;4.72;;;0.75;;
20653;SDS011;21083;50.898;4.902;2023-03-24T03:59:00;6.32;;;1.20;;
20653;SDS011;21083;50.898;4.902;2023-03-24T04:01:28;6.50;;;1.15;;
20653;SDS011;21083;50.898;4.902;2023-03-24T04:04:02;3.55;;;1.10;;
20653;SDS011;21083;50.898;4.902;2023-03-24T04:06:47;6.35;;;1.02;;
20653;SDS011;21083;50.898;4.902;2023-03-24T04:09:26;4.57;;;0.90;;
20653;SDS011;21083;50.898;4.902;2023-03-24T04:15:00;5.47;;;1.10;;
20653;SDS011;21083;50.898;4.902;2023-03-24T04:17:46;10.70;;;1.50;;
20653;SDS011;21083;50.898;4.902;2023-03-24T04:20:21;6.97;;;1.33;;
20653;SDS011;21083;50.898;4.902;2023-03-24T04:22:57;11.98;;;1.60;;
20653;SDS011;21083;50.898;4.902;2023-03-24T04:25:34;6.75;;;1.33;;
20653;SDS011;21083;50.898;4.902;2023-03-24T04:28:08;13.20;;;1.42;;
20653;SDS011;21083;50.898;4.902;2023-03-24T04:30:44;7.30;;;1.80;;
20653;SDS011;21083;50.898;4.902;2023-03-24T04:33:16;8.75;;;1.40;;
20653;SDS011;21083;50.898;4.902;2023-03-24T04:35:46;8.60;;;1.45;;
20653;SDS011;21083;50.898;4.902;2023-03-24T04:38:19;16.08;;;2.85;;
20653;SDS011;21083;50.898;4.902;2023-03-24T04:40:50;12.90;;;1.40;;
20653;SDS011;21083;50.898;4.902;2023-03-24T04:43:20;15.90;;;1.85;;
20653;SDS011;21083;50.898;4.902;2023-03-24T04:45:53;5.55;;;0.95;;
20653;SDS011;21083;50.898;4.902;2023-03-24T04:48:22;11.60;;;1.65;;
20653;SDS011;21083;50.898;4.902;2023-03-24T04:50:53;7.85;;;1.45;;
20653;SDS011;21083;50.898;4.902;2023-03-24T04:53:21;12.23;;;1.75;;
20653;SDS011;21083;50.898;4.902;2023-03-24T04:58:44;11.43;;;2.22;;
20653;SDS011;21083;50.898;4.902;2023-03-24T05:01:12;13.07;;;2.28;;
20653;SDS011;21083;50.898;4.902;2023-03-24T05:03:41;12.07;;;2.00;;
20653;SDS011;21083;50.898;4.902;2023-03-24T05:06:10;12.27;;;2.33;;
20653;SDS011;21083;50.898;4.902;2023-03-24T05:08:38;11.30;;;2.55;;
20653;SDS011;21083;50.898;4.902;2023-03-24T05:11:05;12.45;;;2.45;;
20653;SDS011;21083;50.898;4.902;2023-03-24T05:13:32;17.05;;;2.90;;
20653;SDS011;21083;50.898;4.902;2023-03-24T05:15:59;22.25;;;2.60;;
20653;SDS011;21083;50.898;4.902;2023-03-24T05:18:28;16.80;;;4.32;;
20653;SDS011;21083;50.898;4.902;2023-03-24T05:20:55;10.50;;;1.85;;
20653;SDS011;21083;50.898;4.902;2023-03-24T05:23:22;10.77;;;2.78;;
20653;SDS011;21083;50.898;4.902;2023-03-24T05:25:49;12.35;;;2.67;;
20653;SDS011;21083;50.898;4.902;2023-03-24T05:28:16;14.15;;;3.28;;
20653;SDS011;21083;50.898;4.902;2023-03-24T05:30:43;13.32;;;2.75;;
20653;SDS011;21083;50.898;4.902;2023-03-24T05:33:10;16.55;;;2.85;;
20653;SDS011;21083;50.898;4.902;2023-03-24T05:35:38;15.95;;;2.70;;
20653;SDS011;21083;50.898;4.902;2023-03-24T05:38:05;19.48;;;2.60;;
20653;SDS011;21083;50.898;4.902;2023-03-24T05:40:32;20.25;;;2.83;;
20653;SDS011;21083;50.898;4.902;2023-03-24T05:42:59;11.63;;;2.10;;
20653;SDS011;21083;50.898;4.902;2023-03-24T05:45:26;15.05;;;2.63;;
20653;SDS011;21083;50.898;4.902;2023-03-24T05:47:54;18.55;;;3.80;;
20653;SDS011;21083;50.898;4.902;2023-03-24T05:50:21;17.83;;;2.47;;
20653;SDS011;21083;50.898;4.902;2023-03-24T05:52:50;13.82;;;2.33;;
20653;SDS011;21083;50.898;4.902;2023-03-24T05:55:17;14.45;;;2.65;;
20653;SDS011;21083;50.898;4.902;2023-03-24T05:57:46;13.68;;;2.75;;
20653;SDS011;21083;50.898;4.902;2023-03-24T06:00:13;18.25;;;2.35;;
20653;SDS011;21083;50.898;4.902;2023-03-24T06:02:42;17.85;;;2.92;;
20653;SDS011;21083;50.898;4.902;2023-03-24T06:05:09;13.05;;;3.17;;
20653;SDS011;21083;50.898;4.902;2023-03-24T06:07:36;16.95;;;3.33;;
20653;SDS011;21083;50.898;4.902;2023-03-24T06:10:08;24.52;;;2.90;;
20653;SDS011;21083;50.898;4.902;2023-03-24T06:12:38;14.50;;;2.70;;
20653;SDS011;21083;50.898;4.902;2023-03-24T06:15:06;18.15;;;3.05;;
20653;SDS011;21083;50.898;4.902;2023-03-24T06:17:34;10.48;;;2.50;;
20653;SDS011;21083;50.898;4.902;2023-03-24T06:20:02;13.00;;;2.10;;
20653;SDS011;21083;50.898;4.902;2023-03-24T06:22:32;12.43;;;2.25;;
20653;SDS011;21083;50.898;4.902;2023-03-24T06:25:00;16.20;;;2.97;;
20653;SDS011;21083;50.898;4.902;2023-03-24T06:27:30;18.92;;;2.20;;
20653;SDS011;21083;50.898;4.902;2023-03-24T06:29:58;15.45;;;1.85;;
20653;SDS011;21083;50.898;4.902;2023-03-24T06:32:25;15.50;;;2.10;;
20653;SDS011;21083;50.898;4.902;2023-03-24T06:34:52;11.85;;;1.88;;
20653;SDS011;21083;50.898;4.902;2023-03-24T06:37:20;18.60;;;2.45;;
20653;SDS011;21083;50.898;4.902;2023-03-24T06:39:48;12.57;;;2.20;;
20653;SDS011;21083;50.898;4.902;2023-03-24T06:42:15;15.73;;;2.53;;
20653;SDS011;21083;50.898;4.902;2023-03-24T06:44:44;17.42;;;2.63;;
20653;SDS011;21083;50.898;4.902;2023-03-24T06:47:11;11.40;;;2.22;;
20653;SDS011;21083;50.898;4.902;2023-03-24T06:49:38;19.95;;;2.42;;
20653;SDS011;21083;50.898;4.902;2023-03-24T06:52:05;10.75;;;2.08;;
20653;SDS011;21083;50.898;4.902;2023-03-24T06:54:32;20.33;;;2.33;;
20653;SDS011;21083;50.898;4.902;2023-03-24T06:56:59;10.48;;;1.88;;
20653;SDS011;21083;50.898;4.902;2023-03-24T06:59:26;13.70;;;2.67;;
20653;SDS011;21083;50.898;4.902;2023-03-24T07:01:54;19.00;;;2.75;;
20653;SDS011;21083;50.898;4.902;2023-03-24T07:04:21;12.85;;;2.75;;
20653;SDS011;21083;50.898;4.902;2023-03-24T07:06:49;19.92;;;2.88;;
20653;SDS011;21083;50.898;4.902;2023-03-24T07:09:17;22.13;;;3.38;;
20653;SDS011;21083;50.898;4.902;2023-03-24T07:11:44;18.30;;;2.85;;
20653;SDS011;21083;50.898;4.902;2023-03-24T07:14:11;11.95;;;1.85;;
20653;SDS011;21083;50.898;4.902;2023-03-24T07:16:38;15.02;;;2.17;;
20653;SDS011;21083;50.898;4.902;2023-03-24T07:19:06;11.30;;;2.03;;
20653;SDS011;21083;50.898;4.902;2023-03-24T07:21:33;18.13;;;1.80;;
20653;SDS011;21083;50.898;4.902;2023-03-24T07:24:00;14.48;;;2.13;;
20653;SDS011;21083;50.898;4.902;2023-03-24T07:26:27;21.17;;;2.13;;
20653;SDS011;21083;50.898;4.902;2023-03-24T07:28:54;22.70;;;2.47;;
20653;SDS011;21083;50.898;4.902;2023-03-24T07:31:21;21.70;;;4.45;;
20653;SDS011;21083;50.898;4.902;2023-03-24T07:33:48;15.68;;;2.10;;
20653;SDS011;21083;50.898;4.902;2023-03-24T07:36:17;10.82;;;2.00;;
20653;SDS011;21083;50.898;4.902;2023-03-24T07:38:44;14.48;;;2.33;;
20653;SDS011;21083;50.898;4.902;2023-03-24T07:41:11;15.85;;;3.20;;
20653;SDS011;21083;50.898;4.902;2023-03-24T07:43:38;18.48;;;3.03;;
20653;SDS011;21083;50.898;4.902;2023-03-24T07:46:05;12.02;;;2.60;;
20653;SDS011;21083;50.898;4.902;2023-03-24T07:48:32;15.68;;;2.35;;
20653;SDS011;21083;50.898;4.902;2023-03-24T07:50:59;14.15;;;2.17;;
20653;SDS011;21083;50.898;4.902;2023-03-24T07:53:27;13.40;;;2.17;;
20653;SDS011;21083;50.898;4.902;2023-03-24T07:55:54;14.55;;;2.40;;
20653;SDS011;21083;50.898;4.902;2023-03-24T07:58:21;16.50;;;2.60;;
20653;SDS011;21083;50.898;4.902;2023-03-24T08:00:48;9.57;;;2.97;;
20653;SDS011;21083;50.898;4.902;2023-03-24T08:03:15;11.82;;;3.55;;
20653;SDS011;21083;50.898;4.902;2023-03-24T08:05:42;16.13;;;3.65;;
20653;SDS011;21083;50.898;4.902;2023-03-24T08:08:10;16.60;;;4.10;;
20653;SDS011;21083;50.898;4.902;2023-03-24T08:10:38;14.70;;;2.97;;
20653;SDS011;21083;50.898;4.902;2023-03-24T08:13:06;19.63;;;3.60;;
20653;SDS011;21083;50.898;4.902;2023-03-24T08:15:33;13.23;;;2.90;;
20653;SDS011;21083;50.898;4.902;2023-03-24T08:18:02;19.40;;;3.60;;
20653;SDS011;21083;50.898;4.902;2023-03-24T08:20:29;20.63;;;4.18;;
20653;SDS011;21083;50.898;4.902;2023-03-24T08:22:56;19.90;;;2.85;;
20653;SDS011;21083;50.898;4.902;2023-03-24T08:25:25;15.73;;;2.85;;
20653;SDS011;21083;50.898;4.902;2023-03-24T08:27:53;14.98;;;3.13;;
20653;SDS011;21083;50.898;4.902;2023-03-24T08:30:21;13.82;;;2.90;;
20653;SDS011;21083;50.898;4.902;2023-03-24T08:32:50;11.43;;;2.88;;
20653;SDS011;21083;50.898;4.902;2023-03-24T08:35:19;12.98;;;2.65;;
20653;SDS011;21083;50.898;4.902;2023-03-24T08:37:48;12.85;;;2.40;;
20653;SDS011;21083;50.898;4.902;2023-03-24T08:40:16;10.32;;;2.30;;
20653;SDS011;21083;50.898;4.902;2023-03-24T08:42:47;10.48;;;2.45;;
20653;SDS011;21083;50.898;4.902;2023-03-24T08:45:17;17.90;;;3.30;;
20653;SDS011;21083;50.898;4.902;2023-03-24T08:47:46;16.20;;;3.00;;
20653;SDS011;21083;50.898;4.902;2023-03-24T08:50:14;13.18;;;3.42;;
20653;SDS011;21083;50.898;4.902;2023-03-24T08:52:41;19.50;;;2.58;;
20653;SDS011;21083;50.898;4.902;2023-03-24T08:55:12;21.80;;;3.35;;
20653;SDS011;21083;50.898;4.902;2023-03-24T08:57:39;13.18;;;2.50;;
20653;SDS011;21083;50.898;4.902;2023-03-24T09:00:06;17.15;;;3.13;;
20653;SDS011;21083;50.898;4.902;2023-03-24T09:02:40;9.60;;;2.50;;
20653;SDS011;21083;50.898;4.902;2023-03-24T09:05:09;14.15;;;2.55;;
20653;SDS011;21083;50.898;4.902;2023-03-24T09:07:36;15.15;;;2.78;;
20653;SDS011;21083;50.898;4.902;2023-03-24T09:10:04;12.32;;;2.72;;
20653;SDS011;21083;50.898;4.902;2023-03-24T09:12:31;16.40;;;2.85;;
20653;SDS011;21083;50.898;4.902;2023-03-24T09:14:58;13.85;;;2.50;;
20653;SDS011;21083;50.898;4.902;2023-03-24T09:17:26;14.15;;;2.38;;
20653;SDS011;21083;50.898;4.902;2023-03-24T09:19:54;18.08;;;2.53;;
20653;SDS011;21083;50.898;4.902;2023-03-24T09:22:21;18.23;;;2.13;;
20653;SDS011;21083;50.898;4.902;2023-03-24T09:24:48;18.92;;;3.40;;
20653;SDS011;21083;50.898;4.902;2023-03-24T09:27:15;11.52;;;2.10;;
20653;SDS011;21083;50.898;4.902;2023-03-24T09:29:42;16.85;;;2.92;;
20653;SDS011;21083;50.898;4.902;2023-03-24T09:32:10;14.38;;;1.88;;
20653;SDS011;21083;50.898;4.902;2023-03-24T09:34:37;11.70;;;2.10;;
20653;SDS011;21083;50.898;4.902;2023-03-24T09:37:06;15.45;;;2.30;;
20653;SDS011;21083;50.898;4.902;2023-03-24T09:39:33;9.07;;;1.88;;
20653;SDS011;21083;50.898;4.902;2023-03-24T09:42:02;12.65;;;1.90;;
20653;SDS011;21083;50.898;4.902;2023-03-24T09:44:32;11.73;;;2.10;;
20653;SDS011;21083;50.898;4.902;2023-03-24T09:47:04;11.75;;;1.75;;
20653;SDS011;21083;50.898;4.902;2023-03-24T09:49:41;12.07;;;2.35;;
20653;SDS011;21083;50.898;4.902;2023-03-24T09:52:17;13.40;;;1.70;;
20653;SDS011;21083;50.898;4.902;2023-03-24T09:54:47;11.35;;;1.77;;
20653;SDS011;21083;50.898;4.902;2023-03-24T09:57:20;12.60;;;1.73;;
20653;SDS011;21083;50.898;4.902;2023-03-24T09:59:50;10.27;;;2.03;;
20653;SDS011;21083;50.898;4.902;2023-03-24T10:02:17;10.55;;;1.67;;
20653;SDS011;21083;50.898;4.902;2023-03-24T10:04:45;15.73;;;1.98;;
20653;SDS011;21083;50.898;4.902;2023-03-24T10:07:20;15.30;;;1.83;;
20653;SDS011;21083;50.898;4.902;2023-03-24T10:09:52;12.30;;;1.58;;
20653;SDS011;21083;50.898;4.902;2023-03-24T10:12:26;10.57;;;1.70;;
20653;SDS011;21083;50.898;4.902;2023-03-24T10:15:04;12.93;;;1.65;;
20653;SDS011;21083;50.898;4.902;2023-03-24T10:17:40;13.23;;;2.15;;
20653;SDS011;21083;50.898;4.902;2023-03-24T10:20:21;12.73;;;1.92;;
20653;SDS011;21083;50.898;4.902;2023-03-24T10:22:57;15.23;;;2.08;;
20653;SDS011;21083;50.898;4.902;2023-03-24T10:25:35;7.65;;;1.67;;
20653;SDS011;21083;50.898;4.902;2023-03-24T10:28:13;10.85;;;1.98;;
20653;SDS011;21083;50.898;4.902;2023-03-24T10:30:44;11.40;;;1.60;;
20653;SDS011;21083;50.898;4.902;2023-03-24T10:33:13;20.35;;;2.65;;
20653;SDS011;21083;50.898;4.902;2023-03-24T10:35:42;14.20;;;2.38;;
20653;SDS011;21083;50.898;4.902;2023-03-24T10:38:17;23.33;;;3.33;;
20653;SDS011;21083;50.898;4.902;2023-03-24T10:40:46;14.70;;;2.80;;
20653;SDS011;21083;50.898;4.902;2023-03-24T10:43:14;12.45;;;1.88;;
20653;SDS011;21083;50.898;4.902;2023-03-24T10:45:43;13.10;;;2.67;;
20653;SDS011;21083;50.898;4.902;2023-03-24T10:48:32;13.77;;;2.08;;
20653;SDS011;21083;50.898;4.902;2023-03-24T10:51:01;9.93;;;2.25;;
20653;SDS011;21083;50.898;4.902;2023-03-24T10:53:31;13.75;;;2.75;;
20653;SDS011;21083;50.898;4.902;2023-03-24T10:55:58;12.82;;;2.53;;
20653;SDS011;21083;50.898;4.902;2023-03-24T10:58:27;19.60;;;3.40;;
20653;SDS011;21083;50.898;4.902;2023-03-24T11:00:56;13.45;;;2.83;;
20653;SDS011;21083;50.898;4.902;2023-03-24T11:03:26;15.20;;;3.17;;
20653;SDS011;21083;50.898;4.902;2023-03-24T11:05:59;17.08;;;3.17;;
20653;SDS011;21083;50.898;4.902;2023-03-24T11:08:30;13.70;;;2.75;;
20653;SDS011;21083;50.898;4.902;2023-03-24T11:11:05;12.00;;;2.70;;
20653;SDS011;21083;50.898;4.902;2023-03-24T11:13:39;12.73;;;3.15;;
20653;SDS011;21083;50.898;4.902;2023-03-24T11:16:09;17.83;;;4.20;;
20653;SDS011;21083;50.898;4.902;2023-03-24T11:18:50;18.23;;;4.65;;
20653;SDS011;21083;50.898;4.902;2023-03-24T11:21:21;19.00;;;4.00;;
20653;SDS011;21083;50.898;4.902;2023-03-24T11:23:50;13.85;;;2.95;;
20653;SDS011;21083;50.898;4.902;2023-03-24T11:26:18;12.40;;;2.33;;
20653;SDS011;21083;50.898;4.902;2023-03-24T11:28:49;8.07;;;1.90;;
20653;SDS011;21083;50.898;4.902;2023-03-24T11:31:21;14.55;;;2.50;;
20653;SDS011;21083;50.898;4.902;2023-03-24T11:33:50;10.98;;;2.00;;
20653;SDS011;21083;50.898;4.902;2023-03-24T11:36:41;21.85;;;2.85;;
20653;SDS011;21083;50.898;4.902;2023-03-24T11:39:14;10.90;;;2.38;;
20653;SDS011;21083;50.898;4.902;2023-03-24T11:41:49;13.80;;;2.50;;
20653;SDS011;21083;50.898;4.902;2023-03-24T11:44:19;13.48;;;2.08;;
20653;SDS011;21083;50.898;4.902;2023-03-24T11:46:49;10.60;;;1.85;;
20653;SDS011;21083;50.898;4.902;2023-03-24T11:49:20;10.27;;;2.28;;
20653;SDS011;21083;50.898;4.902;2023-03-24T11:51:52;16.90;;;2.50;;
20653;SDS011;21083;50.898;4.902;2023-03-24T11:54:22;12.98;;;3.17;;
20653;SDS011;21083;50.898;4.902;2023-03-24T11:56:53;15.50;;;2.60;;
20653;SDS011;21083;50.898;4.902;2023-03-24T11:59:26;13.35;;;2.88;;
20653;SDS011;21083;50.898;4.902;2023-03-24T12:02:00;13.80;;;2.88;;
20653;SDS011;21083;50.898;4.902;2023-03-24T12:04:39;12.18;;;2.80;;
20653;SDS011;21083;50.898;4.902;2023-03-24T12:07:24;13.25;;;2.80;;
20653;SDS011;21083;50.898;4.902;2023-03-24T12:10:03;10.25;;;2.67;;
20653;SDS011;21083;50.898;4.902;2023-03-24T12:12:40;12.00;;;1.98;;
20653;SDS011;21083;50.898;4.902;2023-03-24T12:15:22;14.30;;;2.42;;
20653;SDS011;21083;50.898;4.902;2023-03-24T12:18:00;10.45;;;2.08;;
20653;SDS011;21083;50.898;4.902;2023-03-24T12:20:39;12.52;;;2.10;;
20653;SDS011;21083;50.898;4.902;2023-03-24T12:23:14;10.80;;;1.88;;
20653;SDS011;21083;50.898;4.902;2023-03-24T12:25:53;16.13;;;2.45;;
20653;SDS011;21083;50.898;4.902;2023-03-24T12:28:36;10.18;;;2.22;;
20653;SDS011;21083;50.898;4.902;2023-03-24T12:31:19;13.07;;;2.17;;
20653;SDS011;21083;50.898;4.902;2023-03-24T12:34:18;12.10;;;2.38;;
20653;SDS011;21083;50.898;4.902;2023-03-24T12:37:06;11.35;;;2.20;;
20653;SDS011;21083;50.898;4.902;2023-03-24T12:39:42;7.72;;;1.95;;
20653;SDS011;21083;50.898;4.902;2023-03-24T12:42:18;11.02;;;1.60;;
20653;SDS011;21083;50.898;4.902;2023-03-24T12:45:02;14.52;;;2.08;;
20653;SDS011;21083;50.898;4.902;2023-03-24T12:47:49;10.55;;;1.88;;
20653;SDS011;21083;50.898;4.902;2023-03-24T12:50:42;11.20;;;2.60;;
20653;SDS011;21083;50.898;4.902;2023-03-24T12:53:31;7.00;;;1.88;;
20653;SDS011;21083;50.898;4.902;2023-03-24T12:56:08;7.95;;;2.17;;
20653;SDS011;21083;50.898;4.902;2023-03-24T12:58:42;10.23;;;2.00;;
20653;SDS011;21083;50.898;4.902;2023-03-24T13:01:15;8.07;;;2.42;;
20653;SDS011;21083;50.898;4.902;2023-03-24T13:03:48;12.75;;;2.13;;
20653;SDS011;21083;50.898;4.902;2023-03-24T13:06:19;8.93;;;1.88;;
20653;SDS011;21083;50.898;4.902;2023-03-24T13:08:53;12.63;;;2.45;;
20653;SDS011;21083;50.898;4.902;2023-03-24T13:11:33;9.75;;;2.20;;
20653;SDS011;21083;50.898;4.902;2023-03-24T13:14:10;9.38;;;2.00;;
20653;SDS011;21083;50.898;4.902;2023-03-24T13:16:40;10.07;;;2.13;;
20653;SDS011;21083;50.898;4.902;2023-03-24T13:19:13;13.30;;;2.17;;
20653;SDS011;21083;50.898;4.902;2023-03-24T13:21:44;9.82;;;1.73;;
20653;SDS011;21083;50.898;4.902;2023-03-24T13:24:13;9.18;;;1.75;;
20653;SDS011;21083;50.898;4.902;2023-03-24T13:26:42;13.38;;;2.15;;
20653;SDS011;21083;50.898;4.902;2023-03-24T13:29:27;14.05;;;3.80;;
20653;SDS011;21083;50.898;4.902;2023-03-24T13:32:16;11.55;;;2.70;;
20653;SDS011;21083;50.898;4.902;2023-03-24T13:34:52;13.15;;;1.90;;
20653;SDS011;21083;50.898;4.902;2023-03-24T13:37:24;13.82;;;2.72;;
20653;SDS011;21083;50.898;4.902;2023-03-24T13:39:55;10.52;;;2.50;;
20653;SDS011;21083;50.898;4.902;2023-03-24T13:42:28;12.77;;;3.15;;
20653;SDS011;21083;50.898;4.902;2023-03-24T13:44:59;12.70;;;2.88;;
20653;SDS011;21083;50.898;4.902;2023-03-24T13:50:14;12.68;;;1.55;;
20653;SDS011;21083;50.898;4.902;2023-03-24T13:52:43;6.00;;;0.82;;
20653;SDS011;21083;50.898;4.902;2023-03-24T13:55:13;5.97;;;0.98;;
20653;SDS011;21083;50.898;4.902;2023-03-24T13:57:52;9.07;;;1.48;;
20653;SDS011;21083;50.898;4.902;2023-03-24T14:00:24;7.35;;;1.10;;
20653;SDS011;21083;50.898;4.902;2023-03-24T14:02:52;7.75;;;1.50;;
20653;SDS011;21083;50.898;4.902;2023-03-24T14:05:32;9.55;;;1.63;;
20653;SDS011;21083;50.898;4.902;2023-03-24T14:08:13;5.18;;;0.90;;
20653;SDS011;21083;50.898;4.902;2023-03-24T14:10:43;4.72;;;0.80;;
20653;SDS011;21083;50.898;4.902;2023-03-24T14:13:19;5.55;;;0.98;;
20653;SDS011;21083;50.898;4.902;2023-03-24T14:15:49;7.95;;;1.80;;
20653;SDS011;21083;50.898;4.902;2023-03-24T14:21:09;6.35;;;1.15;;
20653;SDS011;21083;50.898;4.902;2023-03-24T14:23:37;9.93;;;1.20;;
20653;SDS011;21083;50.898;4.902;2023-03-24T14:26:07;5.40;;;1.55;;
20653;SDS011;21083;50.898;4.902;2023-03-24T14:28:39;6.78;;;1.52;;
20653;SDS011;21083;50.898;4.902;2023-03-24T14:31:09;6.32;;;1.30;;
20653;SDS011;21083;50.898;4.902;2023-03-24T14:34:04;12.00;;;1.67;;
20653;SDS011;21083;50.898;4.902;2023-03-24T14:36:36;6.97;;;1.02;;
20653;SDS011;21083;50.898;4.902;2023-03-24T14:39:05;14.65;;;1.42;;
20653;SDS011;21083;50.898;4.902;2023-03-24T14:41:38;7.82;;;1.60;;
20653;SDS011;21083;50.898;4.902;2023-03-24T14:44:08;7.10;;;1.40;;
20653;SDS011;21083;50.898;4.902;2023-03-24T14:46:37;6.50;;;1.20;;
20653;SDS011;21083;50.898;4.902;2023-03-24T14:51:51;6.72;;;1.30;;
20653;SDS011;21083;50.898;4.902;2023-03-24T14:54:26;8.98;;;1.88;;
20653;SDS011;21083;50.898;4.902;2023-03-24T14:56:56;13.68;;;2.17;;
20653;SDS011;21083;50.898;4.902;2023-03-24T14:59:26;8.68;;;1.50;;
20653;SDS011;21083;50.898;4.902;2023-03-24T15:02:04;6.05;;;1.35;;
20653;SDS011;21083;50.898;4.902;2023-03-24T15:04:42;15.25;;;3.72;;
20653;SDS011;21083;50.898;4.902;2023-03-24T15:07:41;4.28;;;1.10;;
20653;SDS011;21083;50.898;4.902;2023-03-24T15:10:12;8.77;;;1.40;;
20653;SDS011;21083;50.898;4.902;2023-03-24T15:12:42;6.00;;;1.77;;
20653;SDS011;21083;50.898;4.902;2023-03-24T15:15:13;10.88;;;2.47;;
20653;SDS011;21083;50.898;4.902;2023-03-24T15:17:52;7.07;;;1.00;;
20653;SDS011;21083;50.898;4.902;2023-03-24T15:20:20;10.10;;;1.60;;
20653;SDS011;21083;50.898;4.902;2023-03-24T15:22:49;5.55;;;1.20;;
20653;SDS011;21083;50.898;4.902;2023-03-24T15:25:19;10.90;;;1.92;;